Time;durP1;ratioP1;P1;durP2;ratioP2;P2;SDS_P1;SDS_P2;PMS_P1;PMS_P2;Temp;Humidity;BMP_temperature;BMP_pressure;BME280_temperature;BME280_humidity;BME280_pressure;Samples;Min_cycle;Max_cycle;Signal;HPM_P1;HPM_P2
2022/07/22 03:00:14;;;;;;;3.10;2.83;;;29.20;37.80;;;;;;6062632;23;45950;31
2022/07/22 03:02:41;;;;;;;4.07;3.00;;;29.30;37.90;;;;;;4870205;28;45747;-62
2022/07/22 03:05:08;;;;;;;4.50;3.50;;;29.30;37.90;;;;;;4873534;28;45092;-64
2022/07/22 03:07:34;;;;;;;4.63;3.35;;;29.20;37.80;;;;;;4897467;28;47120;-62
2022/07/22 03:10:01;;;;;;;5.63;3.47;;;29.20;37.90;;;;;;4897146;28;45600;-64
2022/07/22 03:12:27;;;;;;;5.95;3.25;;;29.20;37.90;;;;;;4918172;28;45176;-64
2022/07/22 03:14:54;;;;;;;3.28;2.97;;;29.20;37.90;;;;;;4919429;28;44745;-63
2022/07/22 03:17:20;;;;;;;4.55;3.33;;;29.20;37.80;;;;;;4911911;28;46043;-62
2022/07/22 03:19:46;;;;;;;4.18;3.42;;;29.20;37.80;;;;;;4909220;28;45205;-65
2022/07/22 03:22:13;;;;;;;3.40;3.10;;;29.20;37.90;;;;;;4919420;28;45263;-60
2022/07/22 03:24:39;;;;;;;4.00;3.10;;;29.10;37.90;;;;;;4920672;28;45497;-64
2022/07/22 03:27:05;;;;;;;5.07;3.42;;;29.10;37.90;;;;;;4902575;28;46156;-65
2022/07/22 03:29:32;;;;;;;5.50;3.35;;;29.10;38.00;;;;;;4920555;28;45514;-63
2022/07/22 03:31:58;;;;;;;5.40;3.70;;;29.10;38.70;;;;;;4917106;28;45249;-62
2022/07/22 03:34:24;;;;;;;4.97;3.30;;;29.10;38.00;;;;;;4915801;28;44910;-60
2022/07/22 03:36:51;;;;;;;4.30;3.47;;;29.10;38.00;;;;;;4918379;28;46142;-64
2022/07/22 03:39:17;;;;;;;3.80;3.05;;;29.10;38.10;;;;;;4919737;28;45474;-59
2022/07/22 03:41:43;;;;;;;3.67;3.38;;;29.10;38.10;;;;;;4918568;28;45291;-63
2022/07/22 03:44:10;;;;;;;4.75;3.25;;;29.00;38.10;;;;;;4915930;28;45517;-64
2022/07/22 03:46:36;;;;;;;4.70;3.33;;;29.00;38.10;;;;;;4906659;28;46258;-62
2022/07/22 03:49:02;;;;;;;5.78;3.30;;;29.00;38.20;;;;;;4913012;28;45630;-62
2022/07/22 03:51:29;;;;;;;4.13;3.58;;;29.00;38.20;;;;;;4913947;28;45377;-64
2022/07/22 03:53:55;;;;;;;7.82;4.00;;;29.00;38.30;;;;;;4921692;28;45341;-64
2022/07/22 03:56:21;;;;;;;3.65;3.35;;;29.00;38.30;;;;;;4914475;28;46199;-62
2022/07/22 03:58:47;;;;;;;4.60;3.55;;;29.00;38.40;;;;;;4920014;28;45199;-63
2022/07/22 04:01:14;;;;;;;5.80;3.33;;;28.90;38.40;;;;;;4915079;28;45071;-64
2022/07/22 04:03:40;;;;;;;6.22;3.42;;;29.00;38.50;;;;;;4919858;28;45020;-63
2022/07/22 04:06:07;;;;;;;3.42;3.03;;;28.90;38.40;;;;;;4904305;28;46070;-61
2022/07/22 04:08:33;;;;;;;4.95;3.83;;;29.00;38.60;;;;;;4920088;28;45434;-63
2022/07/22 04:10:59;;;;;;;4.45;3.40;;;29.00;38.60;;;;;;4913792;28;45338;-65
2022/07/22 04:13:26;;;;;;;4.25;3.00;;;29.00;38.60;;;;;;4915639;28;45651;-63
2022/07/22 04:15:52;;;;;;;5.32;3.63;;;28.90;38.50;;;;;;4917979;28;46813;-60
2022/07/22 04:18:18;;;;;;;4.35;3.95;;;28.90;38.50;;;;;;4920182;28;44646;-63
2022/07/22 04:20:46;;;;;;;5.18;3.95;;;28.90;38.60;;;;;;4919698;28;45418;-59
2022/07/22 04:23:12;;;;;;;4.10;3.47;;;28.90;38.60;;;;;;4922243;28;45414;-64
2022/07/22 04:25:39;;;;;;;5.22;3.80;;;28.90;38.60;;;;;;4920006;28;45520;-63
2022/07/22 04:28:05;;;;;;;5.72;3.30;;;28.90;38.70;;;;;;4914974;28;45434;-63
2022/07/22 04:30:31;;;;;;;4.32;3.60;;;28.80;38.60;;;;;;4917188;28;45011;-65
2022/07/22 04:32:58;;;;;;;3.95;3.17;;;28.80;38.70;;;;;;4900679;28;45430;-60
2022/07/22 04:35:25;;;;;;;4.03;3.60;;;28.80;38.70;;;;;;4915730;28;46253;-63
2022/07/22 04:37:51;;;;;;;4.68;4.13;;;28.80;38.70;;;;;;4908688;28;45976;-62
2022/07/22 04:40:17;;;;;;;5.40;3.75;;;28.80;38.70;;;;;;4912702;28;45524;-63
2022/07/22 04:42:45;;;;;;;6.97;3.70;;;28.80;38.80;;;;;;4918302;28;45520;-63
2022/07/22 04:45:11;;;;;;;4.80;3.60;;;28.80;38.90;;;;;;4909923;28;46904;-66
2022/07/22 04:47:38;;;;;;;4.78;3.72;;;28.80;39.10;;;;;;4912401;28;45253;-59
2022/07/22 04:50:04;;;;;;;3.85;3.03;;;28.80;39.10;;;;;;4917705;28;45288;-64
2022/07/22 04:52:31;;;;;;;5.22;3.67;;;28.80;39.10;;;;;;4917263;28;45536;-64
2022/07/22 04:54:58;;;;;;;6.03;3.83;;;28.80;39.20;;;;;;4895196;28;45559;-66
2022/07/22 04:57:25;;;;;;;5.50;3.85;;;28.80;39.20;;;;;;4923423;28;45850;-66
2022/07/22 05:10:45;;;;;;;3.30;3.00;;;28.80;39.80;;;;;;4888357;28;45252;-68
2022/07/22 05:13:13;;;;;;;5.03;4.22;;;28.70;39.50;;;;;;4900020;28;45722;-62
2022/07/22 05:15:39;;;;;;;5.18;4.10;;;28.80;39.60;;;;;;4892736;28;45909;-56
2022/07/22 05:18:06;;;;;;;5.22;4.25;;;28.80;39.70;;;;;;4913399;28;45560;-59
2022/07/22 05:20:32;;;;;;;4.55;4.03;;;28.80;39.90;;;;;;4918116;28;44984;-62
2022/07/22 05:22:58;;;;;;;6.53;4.43;;;28.80;40.00;;;;;;4913889;28;45322;-68
2022/07/22 05:25:25;;;;;;;4.40;4.00;;;28.80;40.00;;;;;;4914516;28;45045;-62
2022/07/22 05:27:52;;;;;;;5.57;4.50;;;28.80;40.10;;;;;;4909388;28;46771;-65
2022/07/22 05:30:18;;;;;;;4.13;3.72;;;28.80;40.00;;;;;;4914710;28;45669;-63
2022/07/22 05:32:45;;;;;;;5.70;4.07;;;28.90;40.10;;;;;;4913610;28;45271;-64
2022/07/22 05:35:11;;;;;;;5.55;4.28;;;28.90;40.20;;;;;;4904346;28;45585;-63
2022/07/22 05:37:37;;;;;;;4.75;3.95;;;28.90;40.30;;;;;;4917769;28;46902;-64
2022/07/22 05:40:04;;;;;;;6.78;4.10;;;28.80;40.40;;;;;;4917137;28;45389;-63
2022/07/22 05:42:30;;;;;;;6.40;3.90;;;28.90;40.40;;;;;;4920161;28;45603;-62
2022/07/22 05:44:56;;;;;;;6.32;4.10;;;28.90;40.40;;;;;;4911464;28;45496;-65
2022/07/22 05:47:23;;;;;;;6.82;4.20;;;28.90;40.40;;;;;;4920680;28;45948;-64
2022/07/22 05:49:49;;;;;;;5.97;4.00;;;28.90;40.50;;;;;;4920665;28;45584;-64
2022/07/22 05:52:15;;;;;;;4.70;4.20;;;28.90;40.60;;;;;;4916016;28;45215;-63
2022/07/22 05:54:42;;;;;;;5.00;3.88;;;28.90;40.70;;;;;;4919674;28;45276;-64
2022/07/22 05:57:09;;;;;;;6.57;3.88;;;28.90;40.90;;;;;;4914783;28;45209;-63
2022/07/22 05:59:36;;;;;;;5.15;3.83;;;28.80;41.00;;;;;;4913484;28;45081;-67
2022/07/22 06:02:03;;;;;;;5.50;4.35;;;28.80;41.10;;;;;;4914457;28;44985;-63
2022/07/22 06:04:29;;;;;;;6.03;3.80;;;28.80;41.10;;;;;;4919978;28;45246;-65
2022/07/22 06:06:55;;;;;;;4.32;3.92;;;28.90;41.20;;;;;;4915879;28;46032;-63
2022/07/22 06:09:21;;;;;;;5.00;4.50;;;28.90;41.20;;;;;;4919059;28;46096;-65
2022/07/22 06:11:48;;;;;;;5.32;4.32;;;28.90;41.20;;;;;;4916482;28;45581;-64
2022/07/22 06:14:14;;;;;;;6.07;5.47;;;28.90;41.20;;;;;;4918759;28;44982;-63
2022/07/22 06:16:40;;;;;;;6.80;5.82;;;28.80;41.90;;;;;;4899200;28;46297;-68
2022/07/22 06:19:07;;;;;;;7.13;5.43;;;28.60;42.20;;;;;;4922871;28;45342;-66
2022/07/22 06:21:33;;;;;;;6.82;5.28;;;28.50;42.60;;;;;;4916465;28;45575;-65
2022/07/22 06:23:59;;;;;;;9.30;5.25;;;28.40;42.60;;;;;;4923796;28;45218;-63
2022/07/22 06:26:26;;;;;;;8.52;5.15;;;28.40;42.80;;;;;;4915131;28;45020;-64
2022/07/22 06:28:52;;;;;;;7.63;5.00;;;28.40;42.80;;;;;;4916966;28;45229;-61
2022/07/22 06:31:18;;;;;;;7.85;5.00;;;28.30;42.70;;;;;;4916924;28;44732;-65
2022/07/22 06:33:44;;;;;;;7.97;4.93;;;28.30;43.00;;;;;;4919259;28;45470;-65
2022/07/22 06:36:11;;;;;;;7.30;5.22;;;28.30;43.20;;;;;;4916306;28;46250;-65
2022/07/22 06:38:37;;;;;;;9.00;4.95;;;28.30;43.10;;;;;;4917324;28;44925;-63
2022/07/22 06:41:04;;;;;;;7.28;5.30;;;28.20;43.40;;;;;;4917187;28;44799;-63
2022/07/22 06:43:30;;;;;;;8.32;4.93;;;28.20;43.40;;;;;;4914609;28;45084;-62
2022/07/22 06:45:56;;;;;;;11.02;5.10;;;28.20;43.30;;;;;;4911938;28;46065;-63
2022/07/22 06:48:23;;;;;;;5.72;4.40;;;28.20;43.30;;;;;;4915791;28;45466;-65
2022/07/22 06:50:49;;;;;;;5.55;4.95;;;28.30;43.80;;;;;;4901848;28;45108;-63
2022/07/22 06:53:15;;;;;;;6.28;4.57;;;28.30;43.30;;;;;;4916424;28;45323;-62
2022/07/22 06:55:42;;;;;;;6.00;4.80;;;28.30;43.30;;;;;;4918369;28;46774;-62
2022/07/22 06:58:09;;;;;;;6.22;4.55;;;28.30;43.30;;;;;;4914968;28;44660;-66
2022/07/22 07:00:35;;;;;;;5.88;4.75;;;28.30;43.20;;;;;;4915351;28;45335;-63
2022/07/22 07:03:02;;;;;;;8.38;4.93;;;28.40;43.20;;;;;;4915974;28;45346;-64
2022/07/22 07:05:28;;;;;;;6.38;4.82;;;28.40;43.00;;;;;;4922066;28;46201;-61
2022/07/22 07:07:56;;;;;;;6.18;4.97;;;28.40;43.20;;;;;;4915754;28;45313;-64
2022/07/22 07:10:22;;;;;;;6.13;4.72;;;28.40;43.20;;;;;;4921033;28;45215;-63
2022/07/22 07:12:49;;;;;;;5.95;5.20;;;28.40;43.30;;;;;;4923443;28;44976;-64
2022/07/22 07:15:15;;;;;;;5.68;4.53;;;28.40;43.50;;;;;;4915891;28;46197;-64
2022/07/22 07:17:42;;;;;;;5.93;4.43;;;28.30;43.60;;;;;;4922607;28;45170;-64
2022/07/22 07:20:09;;;;;;;6.32;4.55;;;28.30;43.60;;;;;;4918424;28;44625;-63
2022/07/22 07:22:35;;;;;;;9.00;5.43;;;28.40;43.80;;;;;;4900862;28;44858;-64
2022/07/22 07:25:06;;;;;;;7.82;4.90;;;28.40;43.60;;;;;;4917592;28;46472;-63
2022/07/22 07:27:32;;;;;;;9.38;5.07;;;28.40;43.70;;;;;;4908374;28;45286;-67
2022/07/22 07:29:59;;;;;;;9.18;5.25;;;28.40;43.60;;;;;;4927999;28;45193;-61
2022/07/22 07:32:25;;;;;;;5.88;5.28;;;28.40;43.80;;;;;;4923580;28;45023;-63
2022/07/22 07:34:52;;;;;;;5.68;4.90;;;28.40;43.80;;;;;;4927744;28;46372;-62
2022/07/22 07:37:18;;;;;;;5.32;4.82;;;28.40;43.90;;;;;;4923895;28;45036;-64
2022/07/22 07:39:45;;;;;;;7.05;4.80;;;28.40;44.50;;;;;;4921395;28;44990;-65
2022/07/22 07:42:11;;;;;;;5.70;4.38;;;28.40;43.80;;;;;;4927649;28;44939;-59
2022/07/22 07:44:38;;;;;;;6.03;4.43;;;28.40;43.60;;;;;;4925778;28;46911;-64
2022/07/22 07:47:04;;;;;;;6.00;4.85;;;28.50;43.50;;;;;;4926777;28;45495;-67
2022/07/22 07:49:31;;;;;;;5.80;5.18;;;28.50;43.50;;;;;;4918560;28;45149;-64
2022/07/22 07:51:57;;;;;;;5.43;4.68;;;28.50;43.60;;;;;;4917476;28;44897;-62
2022/07/22 07:54:24;;;;;;;7.35;4.85;;;28.50;43.50;;;;;;4922784;28;46174;-64
2022/07/22 07:56:50;;;;;;;6.85;4.97;;;28.50;43.50;;;;;;4920909;28;45477;-63
2022/07/22 07:59:17;;;;;;;5.05;4.55;;;28.50;43.50;;;;;;4922185;28;44989;-65
2022/07/22 08:01:43;;;;;;;5.40;4.68;;;28.50;43.50;;;;;;4923119;28;45233;-65
2022/07/22 08:04:10;;;;;;;6.47;4.20;;;28.60;43.40;;;;;;4926587;28;45965;-67
2022/07/22 08:06:36;;;;;;;6.10;4.70;;;28.60;43.30;;;;;;4923177;28;45266;-68
2022/07/22 08:09:03;;;;;;;7.05;4.70;;;28.70;43.20;;;;;;4919959;28;45347;-66
2022/07/22 08:11:29;;;;;;;6.75;5.00;;;28.70;43.10;;;;;;4923252;28;44989;-66
2022/07/22 08:13:55;;;;;;;5.57;4.72;;;28.80;43.10;;;;;;4923224;28;46988;-65
2022/07/22 08:16:21;;;;;;;5.80;4.70;;;28.80;43.10;;;;;;4923697;28;45453;-66
2022/07/22 08:18:46;;;;;;;7.03;5.65;;;28.80;43.30;;;;;;4918079;28;45357;-68
2022/07/22 08:21:12;;;;;;;5.55;5.00;;;28.80;43.10;;;;;;4913657;28;45530;-70
2022/07/22 08:23:38;;;;;;;6.90;4.90;;;28.90;43.10;;;;;;4914979;28;45877;-66
2022/07/22 08:26:04;;;;;;;6.32;4.80;;;28.90;43.10;;;;;;4897622;28;45547;-66
2022/07/22 08:28:30;;;;;;;6.32;5.10;;;28.90;43.10;;;;;;4914200;28;45198;-68
2022/07/22 08:30:55;;;;;;;8.90;4.65;;;28.90;43.20;;;;;;4917177;28;44915;-66
2022/07/22 08:33:21;;;;;;;7.93;4.95;;;28.90;43.20;;;;;;4919102;28;46195;-65
2022/07/22 08:35:47;;;;;;;6.78;4.40;;;28.90;43.00;;;;;;4919055;28;45407;-65
2022/07/22 08:38:13;;;;;;;6.35;5.05;;;29.00;42.90;;;;;;4916733;28;45217;-65
2022/07/22 08:40:38;;;;;;;8.45;4.45;;;29.00;42.80;;;;;;4919700;28;45280;-65
2022/07/22 08:43:04;;;;;;;5.68;4.72;;;29.10;42.60;;;;;;4913722;28;47124;-64
2022/07/22 08:45:30;;;;;;;7.93;4.80;;;29.20;42.50;;;;;;4918407;28;45600;-70
2022/07/22 08:47:56;;;;;;;6.28;4.38;;;29.20;42.50;;;;;;4915783;28;45303;-68
2022/07/22 08:50:22;;;;;;;5.88;4.28;;;29.20;42.40;;;;;;4916574;28;45532;-65
2022/07/22 08:52:48;;;;;;;5.18;4.60;;;29.30;42.40;;;;;;4883436;28;45140;-66
2022/07/22 08:55:14;;;;;;;4.53;4.13;;;29.30;42.30;;;;;;4918067;28;45315;-66
2022/07/22 08:57:50;;;;;;;8.30;4.63;;;29.40;42.20;;;;;;4916448;28;45387;-65
2022/07/22 09:00:20;;;;;;;4.85;4.28;;;29.50;42.20;;;;;;4874739;29;45427;-68
2022/07/22 09:02:46;;;;;;;6.00;4.57;;;29.50;42.20;;;;;;4868440;29;46109;-66
2022/07/22 09:05:16;;;;;;;6.20;4.55;;;29.50;42.10;;;;;;4870456;29;45227;-67
2022/07/22 09:07:43;;;;;;;5.55;4.40;;;29.60;42.00;;;;;;4853027;29;45053;-66
2022/07/22 09:10:17;;;;;;;7.85;4.60;;;29.60;41.90;;;;;;4869387;29;45425;-66
2022/07/22 09:13:00;;;;;;;4.97;4.25;;;29.70;41.90;;;;;;4869336;29;46687;-66
2022/07/22 09:15:30;;;;;;;5.95;4.55;;;29.70;41.80;;;;;;4842522;29;45018;-69
2022/07/22 09:17:57;;;;;;;9.38;4.47;;;29.80;41.90;;;;;;4875991;29;45014;-63
2022/07/22 09:20:23;;;;;;;5.18;4.45;;;29.80;41.80;;;;;;4845582;29;45819;-70
2022/07/22 09:22:49;;;;;;;5.25;4.75;;;29.80;41.70;;;;;;4874651;29;45410;-68
2022/07/22 09:25:30;;;;;;;7.50;4.63;;;29.80;41.60;;;;;;4873859;29;46421;-68
2022/07/22 09:28:09;;;;;;;5.57;5.03;;;29.90;41.50;;;;;;4867603;29;44797;-67
2022/07/22 09:30:46;;;;;;;8.68;5.28;;;29.80;41.50;;;;;;4847550;28;44986;-66
2022/07/22 09:33:12;;;;;;;5.57;4.75;;;29.80;41.50;;;;;;4895922;28;47209;-67
2022/07/22 09:35:39;;;;;;;6.22;4.60;;;29.80;41.50;;;;;;4913685;28;45169;-65
2022/07/22 09:38:06;;;;;;;9.25;4.90;;;29.80;41.50;;;;;;4898775;28;45511;-66
2022/07/22 09:40:36;;;;;;;6.32;4.93;;;29.90;41.40;;;;;;4877829;28;45013;-65
2022/07/22 09:43:11;;;;;;;6.18;4.50;;;29.90;41.30;;;;;;4911316;28;46784;-68
2022/07/22 09:45:53;;;;;;;6.47;4.40;;;29.90;41.30;;;;;;4916919;28;45281;-69
2022/07/22 09:48:21;;;;;;;7.13;4.55;;;30.00;41.20;;;;;;4914791;28;45436;-67
2022/07/22 09:50:47;;;;;;;7.63;5.03;;;30.00;41.10;;;;;;4876135;28;44844;-67
2022/07/22 09:53:13;;;;;;;9.07;4.93;;;30.00;41.10;;;;;;4861284;28;45732;-63
2022/07/22 09:55:39;;;;;;;4.93;4.38;;;30.10;41.00;;;;;;4868965;28;44825;-69
2022/07/22 09:58:07;;;;;;;5.93;3.78;;;30.20;41.00;;;;;;4896155;28;45596;-64
2022/07/22 10:00:33;;;;;;;5.45;4.18;;;30.20;40.80;;;;;;4910719;28;45502;-68
2022/07/22 10:03:00;;;;;;;3.97;3.28;;;30.30;40.80;;;;;;4902053;28;46432;-66
2022/07/22 10:05:28;;;;;;;4.53;3.30;;;30.30;40.50;;;;;;4889183;28;45577;-62
2022/07/22 10:07:54;;;;;;;5.57;3.17;;;30.40;40.50;;;;;;4909086;28;45754;-67
2022/07/22 10:10:24;;;;;;;3.58;3.10;;;30.50;40.40;;;;;;4907197;28;45108;-64
2022/07/22 10:12:52;;;;;;;4.68;3.90;;;30.50;40.10;;;;;;4918653;28;47132;-63
2022/07/22 10:15:17;;;;;;;5.47;3.45;;;30.60;40.10;;;;;;4903078;28;45370;-65
2022/07/22 10:17:48;;;;;;;5.32;3.60;;;30.60;39.90;;;;;;4917072;28;45310;-64
2022/07/22 10:20:16;;;;;;;4.65;3.35;;;30.70;39.80;;;;;;4878580;28;45280;-65
2022/07/22 10:22:42;;;;;;;5.22;3.45;;;30.70;39.60;;;;;;4892591;28;48021;-63
2022/07/22 10:25:10;;;;;;;7.05;3.88;;;30.70;39.60;;;;;;4916854;28;45604;-65
2022/07/22 10:27:59;;;;;;;4.70;3.53;;;30.80;39.50;;;;;;4914886;28;45687;-67
2022/07/22 10:30:29;;;;;;;9.05;3.72;;;30.80;39.10;;;;;;4919923;28;45256;-64
2022/07/22 10:36:33;;;;;;;9.30;3.15;;;30.90;38.70;;;;;;4913032;28;45927;-67
2022/07/22 10:39:10;;;;;;;4.07;3.30;;;30.90;38.70;;;;;;4900484;28;45938;-64
2022/07/22 10:41:44;;;;;;;4.03;3.33;;;30.90;38.70;;;;;;4908194;28;45315;-66
2022/07/22 10:44:09;;;;;;;3.67;3.30;;;30.90;38.60;;;;;;4871494;28;47227;-66
2022/07/22 10:47:07;;;;;;;6.78;3.28;;;31.00;38.80;;;;;;4911618;28;45845;-67
2022/07/22 10:53:02;;;;;;;6.80;3.10;;;31.10;37.70;;;;;;4908359;28;45286;-65
2022/07/22 11:30:42;;;;;;;2.83;2.63;;;31.40;36.20;;;;;;4905622;28;45510;-68
2022/07/22 11:33:07;;;;;;;4.90;3.53;;;31.40;36.80;;;;;;4909660;28;45724;-71
2022/07/22 11:35:33;;;;;;;4.18;3.22;;;31.50;36.70;;;;;;4909414;28;46230;-74
2022/07/22 12:18:38;;;;;;;3.65;3.00;;;31.80;34.90;;;;;;4920129;28;45480;-65
2022/07/22 12:21:05;;;;;;;6.45;3.47;;;31.80;35.10;;;;;;4895879;28;45294;-67
2022/07/22 12:23:31;;;;;;;4.75;3.25;;;31.80;35.50;;;;;;4922915;28;45218;-68
2022/07/22 12:25:58;;;;;;;3.40;3.00;;;31.90;35.40;;;;;;4917015;28;45037;-71
2022/07/22 12:28:25;;;;;;;4.78;3.13;;;31.90;35.10;;;;;;4918935;28;45692;-68
2022/07/22 12:30:51;;;;;;;3.35;2.80;;;31.90;35.00;;;;;;4921312;28;45746;-68
2022/07/22 12:33:18;;;;;;;3.35;2.53;;;31.90;34.90;;;;;;4897083;28;45596;-70
2022/07/22 12:35:44;;;;;;;3.08;2.78;;;31.90;34.80;;;;;;4926639;28;45310;-70
2022/07/22 12:38:10;;;;;;;5.03;2.75;;;31.90;34.70;;;;;;4898528;28;45636;-71
2022/07/22 12:40:36;;;;;;;3.97;2.72;;;31.90;34.60;;;;;;4915702;28;44742;-67
2022/07/22 12:43:04;;;;;;;5.30;2.90;;;31.90;34.60;;;;;;4915206;28;45589;-69
2022/07/22 12:45:31;;;;;;;5.88;2.67;;;31.90;34.40;;;;;;4897654;28;46043;-71
2022/07/22 12:51:19;;;;;;;3.42;2.85;;;32.00;33.20;;;;;;4914664;28;45205;-67
2022/07/22 12:53:44;;;;;;;4.32;3.15;;;32.00;34.10;;;;;;4898981;28;44966;-66
2022/07/22 12:56:10;;;;;;;3.45;2.58;;;32.00;34.00;;;;;;4906131;28;45881;-66
2022/07/22 12:58:37;;;;;;;2.97;2.65;;;32.00;33.90;;;;;;4896670;28;45019;-69
2022/07/22 13:01:03;;;;;;;5.10;2.92;;;32.00;33.90;;;;;;4911290;28;45752;-68
2022/07/22 13:03:30;;;;;;;5.30;2.90;;;32.00;33.90;;;;;;4913065;28;45799;-68
2022/07/22 13:05:57;;;;;;;3.63;2.83;;;32.00;33.80;;;;;;4914761;28;47048;-68
2022/07/22 13:08:23;;;;;;;3.55;2.58;;;32.10;34.40;;;;;;4915253;28;45640;-67
2022/07/22 13:10:49;;;;;;;3.80;2.75;;;32.10;33.80;;;;;;4918880;28;45156;-66
2022/07/22 13:13:15;;;;;;;3.92;2.67;;;32.10;33.80;;;;;;4894261;28;45248;-68
2022/07/22 13:15:41;;;;;;;3.97;2.72;;;32.10;33.70;;;;;;4916697;28;46754;-68
2022/07/22 13:18:06;;;;;;;4.63;2.97;;;32.10;33.70;;;;;;4917551;28;45481;-68
2022/07/22 13:20:32;;;;;;;7.45;2.78;;;32.20;33.70;;;;;;4923377;28;45016;-70
2022/07/22 13:22:57;;;;;;;2.90;2.60;;;32.20;33.60;;;;;;4918126;28;45717;-68
2022/07/22 13:25:26;;;;;;;3.65;2.40;;;32.20;33.50;;;;;;4893428;28;47107;-74
2022/07/22 13:27:52;;;;;;;3.65;2.40;;;32.20;33.50;;;;;;4895405;28;45477;-69
2022/07/22 13:30:18;;;;;;;5.68;2.63;;;32.20;33.30;;;;;;4913860;28;45572;-68
2022/07/22 13:32:43;;;;;;;3.17;2.85;;;32.30;33.30;;;;;;4883259;28;45166;-70
2022/07/22 13:35:09;;;;;;;3.13;2.45;;;32.30;33.20;;;;;;4908796;28;46484;-69
2022/07/22 13:37:35;;;;;;;3.47;3.00;;;32.30;33.20;;;;;;4893608;28;45717;-73
2022/07/22 13:40:01;;;;;;;4.10;2.78;;;32.30;33.20;;;;;;4919007;28;46774;-71
2022/07/22 13:42:26;;;;;;;3.38;2.75;;;32.30;33.20;;;;;;4921391;28;45593;-69
2022/07/22 13:44:54;;;;;;;4.10;2.60;;;32.30;33.10;;;;;;4919806;28;45496;-67
2022/07/22 13:47:20;;;;;;;5.45;2.80;;;32.30;33.10;;;;;;4919853;28;45290;-67
2022/07/22 13:49:46;;;;;;;4.40;3.05;;;32.30;33.20;;;;;;4899318;28;45503;-68
2022/07/22 13:52:12;;;;;;;3.38;2.97;;;32.40;33.20;;;;;;4919188;28;45060;-70
2022/07/22 13:54:37;;;;;;;4.13;2.97;;;32.40;33.40;;;;;;4918567;28;46102;-68
2022/07/22 13:57:03;;;;;;;2.90;2.70;;;32.40;33.30;;;;;;4920217;28;45588;-67
2022/07/22 13:59:29;;;;;;;3.28;2.95;;;32.40;33.30;;;;;;4918448;28;45523;-70
2022/07/22 14:01:55;;;;;;;2.85;2.53;;;32.40;33.30;;;;;;4919678;28;45619;-65
2022/07/22 14:04:20;;;;;;;5.20;2.67;;;32.40;33.40;;;;;;4918812;28;45533;-70
2022/07/22 14:06:46;;;;;;;3.22;2.92;;;32.40;33.30;;;;;;4917592;28;45329;-69
2022/07/22 14:09:11;;;;;;;4.25;2.83;;;32.40;33.30;;;;;;4915983;28;46260;-68
2022/07/22 14:11:37;;;;;;;3.22;2.97;;;32.40;33.30;;;;;;4918748;28;45507;-68
2022/07/22 14:14:03;;;;;;;4.18;2.97;;;32.40;33.30;;;;;;4917284;28;45716;-68
2022/07/22 14:16:34;;;;;;;3.30;2.97;;;32.50;33.40;;;;;;4911066;28;45500;-70
2022/07/22 14:19:10;;;;;;;4.85;2.80;;;32.50;33.50;;;;;;4916301;28;45983;-67
2022/07/22 14:21:36;;;;;;;5.97;3.00;;;32.50;33.40;;;;;;4915770;28;45127;-69
2022/07/22 14:24:02;;;;;;;2.63;2.42;;;32.50;33.40;;;;;;4912585;28;45559;-65
2022/07/22 14:26:28;;;;;;;6.07;2.75;;;32.50;33.40;;;;;;4917753;28;45335;-66
2022/07/22 14:28:54;;;;;;;4.10;2.97;;;32.50;33.50;;;;;;4914231;28;45275;-71
2022/07/22 14:31:19;;;;;;;4.05;3.05;;;32.50;33.50;;;;;;4895445;28;45242;-69
2022/07/22 14:33:45;;;;;;;3.75;2.85;;;32.50;33.50;;;;;;4916535;28;45956;-68
2022/07/22 14:36:11;;;;;;;4.32;3.30;;;32.50;33.40;;;;;;4895610;28;45530;-66
2022/07/22 14:38:37;;;;;;;3.95;2.88;;;32.50;33.30;;;;;;4896592;28;44936;-67
2022/07/22 14:41:02;;;;;;;3.55;2.88;;;32.50;33.20;;;;;;4923468;28;45549;-70
2022/07/22 14:43:28;;;;;;;4.22;2.90;;;32.50;33.10;;;;;;4917363;28;46309;-68
2022/07/22 14:45:53;;;;;;;2.80;2.53;;;32.50;33.10;;;;;;4923219;28;45444;-68
2022/07/22 14:48:19;;;;;;;4.47;2.72;;;32.50;33.00;;;;;;4917493;28;46159;-72
2022/07/22 14:50:46;;;;;;;4.35;2.97;;;32.60;33.00;;;;;;4917192;28;45086;-68
2022/07/22 14:53:11;;;;;;;3.42;2.88;;;32.60;32.90;;;;;;4915426;28;46503;-69
2022/07/22 14:55:37;;;;;;;4.63;3.00;;;32.50;32.70;;;;;;4915588;28;45569;-68
2022/07/22 14:58:03;;;;;;;3.88;3.10;;;32.50;32.80;;;;;;4900193;28;45619;-67
2022/07/22 15:00:29;;;;;;;4.28;2.83;;;32.60;32.80;;;;;;4915189;28;45285;-69
2022/07/22 15:02:54;;;;;;;3.97;2.85;;;32.50;32.70;;;;;;4917220;28;45978;-68
2022/07/22 15:05:20;;;;;;;4.03;3.30;;;32.50;32.70;;;;;;4921700;28;45068;-70
2022/07/22 15:07:45;;;;;;;3.85;3.03;;;32.50;32.70;;;;;;4915121;28;45047;-69
2022/07/22 15:10:11;;;;;;;3.17;2.92;;;32.50;32.70;;;;;;4908933;28;45262;-74
2022/07/22 15:12:37;;;;;;;3.20;2.90;;;32.50;32.70;;;;;;4907935;28;46131;-68
2022/07/22 15:15:03;;;;;;;3.70;3.30;;;32.50;32.80;;;;;;4913564;28;45635;-66
2022/07/22 15:17:34;;;;;;;3.63;2.70;;;32.50;32.80;;;;;;4907647;28;44743;-67
2022/07/22 15:20:00;;;;;;;3.15;2.60;;;32.60;32.70;;;;;;4892208;28;45569;-69
2022/07/22 15:22:27;;;;;;;3.30;3.00;;;32.60;33.00;;;;;;4913013;28;46445;-71
2022/07/22 15:24:53;;;;;;;3.63;2.72;;;32.60;32.90;;;;;;4914319;28;45643;-67
2022/07/22 15:27:19;;;;;;;6.53;3.03;;;32.60;32.80;;;;;;4912350;28;45366;-70
2022/07/22 15:29:47;;;;;;;3.63;3.10;;;32.60;32.80;;;;;;4913251;28;45283;-67
2022/07/22 15:32:17;;;;;;;3.33;3.03;;;32.60;32.60;;;;;;4909179;28;45376;-68
2022/07/22 15:34:42;;;;;;;5.10;2.90;;;32.60;32.50;;;;;;4915918;28;45245;-69
2022/07/22 15:37:10;;;;;;;3.35;2.67;;;32.60;32.70;;;;;;4911279;28;45287;-67
2022/07/22 15:39:36;;;;;;;2.97;2.67;;;32.60;32.60;;;;;;4895956;28;45316;-66
2022/07/22 15:42:02;;;;;;;4.20;3.00;;;32.60;32.60;;;;;;4895091;28;46297;-68
2022/07/22 15:44:28;;;;;;;5.60;3.25;;;32.60;32.60;;;;;;4914887;28;45601;-68
2022/07/22 15:46:54;;;;;;;5.63;3.10;;;32.60;32.60;;;;;;4916418;28;45197;-67
2022/07/22 15:49:21;;;;;;;4.95;3.08;;;32.60;32.60;;;;;;4918878;28;45812;-66
2022/07/22 15:51:47;;;;;;;5.88;3.45;;;32.60;32.50;;;;;;4912401;28;46145;-71
2022/07/22 15:54:13;;;;;;;5.28;3.40;;;32.70;32.60;;;;;;4898593;28;45757;-70
2022/07/22 15:56:40;;;;;;;3.22;2.83;;;32.70;32.50;;;;;;4909444;28;45475;-68
2022/07/22 16:01:51;;;;;;;4.00;3.13;;;32.70;32.40;;;;;;4912938;28;47193;-70
2022/07/22 16:04:16;;;;;;;4.35;3.15;;;32.70;32.40;;;;;;4894021;28;45486;-68
2022/07/22 16:06:42;;;;;;;4.70;3.08;;;32.70;32.60;;;;;;4917320;28;45542;-71
2022/07/22 16:09:08;;;;;;;3.70;2.67;;;32.70;32.50;;;;;;4919547;28;45545;-67
2022/07/22 16:11:34;;;;;;;4.93;2.75;;;32.70;32.50;;;;;;4897703;28;46276;-66
2022/07/22 16:13:59;;;;;;;4.88;3.10;;;32.70;32.40;;;;;;4913760;28;44937;-69
2022/07/22 16:16:25;;;;;;;4.20;2.67;;;32.70;32.40;;;;;;4922419;28;45544;-67
2022/07/22 16:18:50;;;;;;;4.90;2.97;;;32.70;32.40;;;;;;4898885;28;45749;-68
2022/07/22 16:21:16;;;;;;;2.92;2.72;;;32.70;32.30;;;;;;4897184;28;46412;-69
2022/07/22 16:23:42;;;;;;;3.53;2.58;;;32.70;32.30;;;;;;4913042;28;44971;-70
2022/07/22 16:26:07;;;;;;;3.33;3.03;;;32.70;32.30;;;;;;4920228;28;45088;-69
2022/07/22 16:28:33;;;;;;;3.75;3.17;;;32.70;32.30;;;;;;4918869;28;45540;-66
2022/07/22 16:30:58;;;;;;;3.42;3.00;;;32.70;32.20;;;;;;4898405;28;47062;-70
2022/07/22 16:33:24;;;;;;;4.00;2.80;;;32.70;32.20;;;;;;4920927;28;45183;-68
2022/07/22 16:35:49;;;;;;;3.05;2.75;;;32.70;32.30;;;;;;4924499;28;45149;-67
2022/07/22 16:38:15;;;;;;;3.95;2.58;;;32.70;32.40;;;;;;4922137;28;45629;-65
2022/07/22 16:40:41;;;;;;;3.80;3.10;;;32.70;32.40;;;;;;4920870;28;45961;-66
2022/07/22 16:43:06;;;;;;;4.38;3.03;;;32.70;32.40;;;;;;4917907;28;44723;-67
2022/07/22 16:45:32;;;;;;;3.05;2.85;;;32.70;32.40;;;;;;4908066;28;45137;-67
2022/07/22 16:47:57;;;;;;;4.78;3.00;;;32.70;32.50;;;;;;4918946;28;45767;-67
2022/07/22 16:50:23;;;;;;;3.30;3.00;;;32.70;32.50;;;;;;4898682;28;46128;-65
2022/07/22 16:52:50;;;;;;;3.83;2.92;;;32.70;32.50;;;;;;4922525;28;45019;-63
2022/07/22 16:55:16;;;;;;;3.42;3.03;;;32.70;32.40;;;;;;4915621;28;45486;-64
2022/07/22 16:57:42;;;;;;;3.45;2.83;;;32.70;32.30;;;;;;4915305;28;45215;-66
2022/07/22 17:00:08;;;;;;;3.13;2.78;;;32.80;32.20;;;;;;4904996;28;45924;-66
2022/07/22 17:02:33;;;;;;;3.25;2.90;;;32.70;32.30;;;;;;4915169;28;45441;-67
2022/07/22 17:04:59;;;;;;;3.03;2.75;;;32.80;32.90;;;;;;4916622;28;45616;-68
2022/07/22 17:07:25;;;;;;;4.07;3.13;;;32.70;32.20;;;;;;4916621;28;45554;-67
2022/07/22 17:09:50;;;;;;;4.18;2.90;;;32.70;32.20;;;;;;4913644;28;47041;-68
2022/07/22 17:12:16;;;;;;;7.90;3.08;;;32.70;32.20;;;;;;4915076;28;45557;-69
2022/07/22 17:14:42;;;;;;;4.28;3.17;;;32.70;32.20;;;;;;4916347;28;44741;-66
2022/07/22 17:17:07;;;;;;;3.95;3.20;;;32.70;32.30;;;;;;4911655;28;45505;-67
2022/07/22 17:19:33;;;;;;;3.40;3.05;;;32.70;32.30;;;;;;4911567;28;45952;-68
2022/07/22 17:21:58;;;;;;;2.92;2.58;;;32.70;32.40;;;;;;4916439;28;45334;-67
2022/07/22 17:24:24;;;;;;;5.03;3.28;;;32.70;32.30;;;;;;4913189;28;45000;-70